Time;durP1;ratioP1;P1;durP2;ratioP2;P2;SDS_P1;SDS_P2;PMS_P1;PMS_P2;Temp;Humidity;BMP_temperature;BMP_pressure;BME280_temperature;BME280_humidity;BME280_pressure;Samples;Min_cycle;Max_cycle;Signal;HPM_P1;HPM_P2
2022/03/14 00:01:56;;;;;;;23.50;11.87;;;1.70;99.90;;;;;;8346950;28;20226;-65
2022/03/14 00:05:57;;;;;;;24.93;11.87;;;1.60;99.90;;;;;;8352060;28;20650;-63
2022/03/14 00:09:57;;;;;;;25.00;12.73;;;1.60;99.90;;;;;;8326940;28;20260;-63
2022/03/14 00:14:01;;;;;;;26.83;12.50;;;1.60;99.90;;;;;;8342364;28;20214;-66
2022/03/14 00:18:03;;;;;;;25.70;13.33;;;1.50;99.90;;;;;;8352434;28;20294;-66
2022/03/14 00:22:04;;;;;;;26.50;12.40;;;1.40;99.90;;;;;;8348169;28;20206;-64
2022/03/14 00:26:07;;;;;;;26.20;12.23;;;1.30;99.90;;;;;;8327185;28;20205;-63
2022/03/14 00:30:11;;;;;;;25.57;12.53;;;1.30;99.90;;;;;;8346071;28;20227;-62
2022/03/14 00:34:14;;;;;;;25.30;11.80;;;1.40;99.90;;;;;;8331078;28;20210;-62
2022/03/14 00:38:16;;;;;;;24.87;11.40;;;1.40;99.90;;;;;;8350397;28;20195;-64
2022/03/14 00:42:20;;;;;;;26.53;13.10;;;1.40;99.90;;;;;;8343905;28;20601;-63
2022/03/14 00:46:21;;;;;;;26.97;12.03;;;1.40;99.90;;;;;;8347200;28;20405;-63
2022/03/14 00:50:22;;;;;;;29.80;11.97;;;1.30;99.90;;;;;;8327260;28;20217;-62
2022/03/14 00:54:22;;;;;;;24.67;11.87;;;1.30;99.90;;;;;;8335338;28;20256;-62
2022/03/14 00:58:23;;;;;;;27.57;12.43;;;1.20;99.90;;;;;;8335667;28;20217;-65
2022/03/14 01:02:25;;;;;;;25.20;11.57;;;1.20;99.90;;;;;;8349726;28;20206;-65
2022/03/14 01:06:27;;;;;;;26.17;11.07;;;1.20;99.90;;;;;;8333642;28;20214;-64
2022/03/14 01:10:28;;;;;;;24.90;10.97;;;1.20;99.90;;;;;;8327819;28;20227;-64
2022/03/14 01:14:29;;;;;;;23.57;11.63;;;1.00;99.90;;;;;;8350980;28;20203;-65
2022/03/14 01:18:30;;;;;;;22.80;11.43;;;0.90;99.90;;;;;;8325829;28;20205;-64
2022/03/14 01:22:31;;;;;;;28.07;11.70;;;0.90;99.90;;;;;;8337483;28;20233;-62
2022/03/14 01:26:34;;;;;;;25.43;11.73;;;0.80;99.90;;;;;;8350607;28;20244;-63
2022/03/14 01:30:35;;;;;;;24.77;11.67;;;0.80;99.90;;;;;;8335837;28;20249;-63
2022/03/14 01:34:36;;;;;;;23.83;10.80;;;0.90;99.90;;;;;;8352532;28;20185;-65
2022/03/14 01:38:37;;;;;;;25.47;12.07;;;0.90;99.90;;;;;;8350857;28;20232;-66
2022/03/14 01:42:38;;;;;;;28.10;12.10;;;0.90;99.90;;;;;;8351561;28;20205;-66
2022/03/14 01:46:39;;;;;;;21.17;10.40;;;0.90;99.90;;;;;;8333603;28;20205;-64
2022/03/14 01:50:39;;;;;;;22.53;11.83;;;0.80;99.90;;;;;;8337582;28;20256;-64
2022/03/14 01:54:43;;;;;;;21.80;10.40;;;0.70;99.90;;;;;;8349526;28;20216;-64
2022/03/14 01:58:46;;;;;;;22.57;11.17;;;0.80;99.90;;;;;;8324750;28;20209;-63
2022/03/14 02:02:48;;;;;;;25.93;11.83;;;0.90;99.90;;;;;;8349895;28;20288;-63
2022/03/14 02:06:51;;;;;;;21.63;10.93;;;0.90;99.90;;;;;;8349301;28;20204;-63
2022/03/14 02:10:52;;;;;;;25.67;11.30;;;1.00;99.90;;;;;;8331194;28;20231;-64
2022/03/14 02:14:53;;;;;;;19.93;10.50;;;1.10;99.90;;;;;;8350250;28;20201;-63
2022/03/14 02:18:55;;;;;;;22.70;11.43;;;1.10;99.90;;;;;;8349605;28;20291;-63
2022/03/14 02:22:56;;;;;;;23.67;11.63;;;1.10;99.90;;;;;;8333420;28;20345;-65
2022/03/14 02:26:58;;;;;;;24.43;11.37;;;1.20;99.90;;;;;;8347447;28;20211;-64
2022/03/14 02:31:02;;;;;;;23.93;11.47;;;1.20;99.90;;;;;;8349469;28;20225;-63
2022/03/14 02:35:03;;;;;;;25.80;12.47;;;1.10;99.90;;;;;;8332178;28;20217;-63
2022/03/14 02:39:04;;;;;;;28.97;12.10;;;1.10;99.90;;;;;;8349318;28;20207;-63
2022/03/14 02:43:06;;;;;;;23.50;12.13;;;1.00;99.90;;;;;;8349275;28;20207;-63
2022/03/14 02:47:07;;;;;;;19.93;10.10;;;0.80;99.90;;;;;;8332391;28;20217;-64
2022/03/14 02:51:08;;;;;;;27.80;11.50;;;0.70;99.90;;;;;;8345690;28;20225;-63
2022/03/14 02:55:09;;;;;;;27.40;11.03;;;0.70;99.90;;;;;;8325701;28;20216;-64
2022/03/14 02:59:10;;;;;;;23.37;12.03;;;0.70;99.90;;;;;;8346640;28;20216;-63
2022/03/14 03:03:11;;;;;;;26.27;12.40;;;0.80;99.90;;;;;;8331402;28;20201;-63
2022/03/14 03:07:12;;;;;;;21.43;11.90;;;0.80;99.90;;;;;;8341116;28;20205;-64
2022/03/14 03:11:13;;;;;;;22.30;12.37;;;0.70;99.90;;;;;;8338355;28;20235;-62
2022/03/14 03:15:17;;;;;;;26.93;12.53;;;0.70;99.90;;;;;;8345630;28;20244;-64
2022/03/14 03:19:18;;;;;;;24.63;11.13;;;0.60;99.90;;;;;;8328366;28;20228;-63
2022/03/14 03:23:19;;;;;;;25.83;13.20;;;0.50;99.90;;;;;;8339930;28;20209;-63
2022/03/14 03:27:20;;;;;;;25.73;12.53;;;0.50;99.90;;;;;;8344151;28;20202;-63
2022/03/14 03:31:20;;;;;;;29.37;12.77;;;0.40;99.90;;;;;;8329805;28;20221;-63
2022/03/14 03:35:21;;;;;;;21.07;11.77;;;0.20;1.00;;;;;;8340375;28;20212;-64
2022/03/14 03:39:23;;;;;;;24.33;11.83;;;0.20;1.00;;;;;;8331547;28;20224;-63
2022/03/14 03:43:23;;;;;;;25.77;11.20;;;0.00;1.00;;;;;;8334751;28;20210;-64
2022/03/14 03:47:24;;;;;;;25.87;12.03;;;-0.10;1.00;;;;;;8347027;28;20202;-65
2022/03/14 03:51:25;;;;;;;20.43;11.63;;;-0.20;1.00;;;;;;8346612;28;20228;-64
2022/03/14 03:55:26;;;;;;;23.57;11.63;;;-0.20;1.00;;;;;;8347182;28;20197;-63
2022/03/14 03:59:27;;;;;;;25.07;12.83;;;-0.10;1.00;;;;;;8341574;28;20224;-64
2022/03/14 04:03:28;;;;;;;23.97;11.47;;;0.10;1.00;;;;;;8329442;28;20233;-63
2022/03/14 04:07:31;;;;;;;21.47;10.73;;;0.20;99.90;;;;;;8337179;28;20206;-65
2022/03/14 04:11:32;;;;;;;25.43;12.60;;;0.30;99.90;;;;;;8349215;28;20221;-65
2022/03/14 04:15:53;;;;;;;27.97;13.47;;;0.20;1.00;;;;;;8349822;28;20209;-63
2022/03/14 04:19:57;;;;;;;25.13;12.80;;;0.10;1.00;;;;;;8334809;28;20435;-63
2022/03/14 04:23:57;;;;;;;28.27;13.70;;;0.10;1.00;;;;;;8347697;28;20233;-63
2022/03/14 04:27:58;;;;;;;30.13;14.47;;;0.00;1.00;;;;;;8351894;28;20202;-64
2022/03/14 04:31:59;;;;;;;30.47;14.80;;;-0.10;1.00;;;;;;8352025;28;20228;-64
2022/03/14 04:36:00;;;;;;;26.47;13.67;;;-0.20;1.00;;;;;;8346933;28;20266;-63
2022/03/14 04:40:01;;;;;;;27.27;13.63;;;-0.30;1.00;;;;;;8349756;28;20205;-64
2022/03/14 04:44:02;;;;;;;29.17;13.67;;;-0.30;1.00;;;;;;8346136;28;20212;-64
2022/03/14 04:48:04;;;;;;;28.03;13.90;;;-0.40;23.90;;;;;;8336710;28;20203;-62
2022/03/14 04:52:05;;;;;;;30.87;14.07;;;-0.40;81.70;;;;;;8351054;28;20213;-63
2022/03/14 04:56:07;;;;;;;28.83;13.20;;;-0.50;99.90;;;;;;8332475;28;20203;-63
2022/03/14 05:00:09;;;;;;;29.37;13.47;;;-0.70;99.90;;;;;;8349065;28;20218;-62
2022/03/14 05:04:09;;;;;;;34.00;14.13;;;-0.80;99.90;;;;;;8342369;28;20330;-64
2022/03/14 05:08:10;;;;;;;25.97;13.27;;;-0.90;99.90;;;;;;8346093;28;20205;-65
2022/03/14 05:12:14;;;;;;;27.73;14.47;;;-1.10;99.90;;;;;;8341572;28;20209;-65
2022/03/14 05:16:15;;;;;;;28.33;13.73;;;-1.10;99.90;;;;;;8333500;28;20244;-65
2022/03/14 05:20:15;;;;;;;28.27;13.73;;;-1.20;99.90;;;;;;8332479;28;20217;-64
2022/03/14 05:24:16;;;;;;;25.30;12.20;;;-1.20;99.90;;;;;;8342125;28;20209;-64
2022/03/14 05:28:17;;;;;;;26.00;12.73;;;-1.20;99.90;;;;;;8341508;28;20300;-66
2022/03/14 05:32:18;;;;;;;22.13;11.80;;;-1.10;99.90;;;;;;8348419;28;20209;-66
2022/03/14 05:36:18;;;;;;;23.17;11.60;;;-1.10;99.90;;;;;;8352077;28;20297;-66
2022/03/14 05:40:20;;;;;;;31.57;12.27;;;-0.90;99.90;;;;;;8324907;28;20221;-65
2022/03/14 05:44:21;;;;;;;24.93;10.80;;;-0.60;97.90;;;;;;8336218;28;20205;-65
2022/03/14 05:48:22;;;;;;;21.17;10.53;;;-0.40;1.60;;;;;;8351695;28;20649;-67
2022/03/14 05:52:23;;;;;;;21.47;10.73;;;-0.20;1.00;;;;;;8344318;28;20218;-67
2022/03/14 05:56:24;;;;;;;24.00;11.93;;;0.10;1.00;;;;;;8350227;28;20206;-67
2022/03/14 06:00:25;;;;;;;22.97;11.00;;;0.30;1.00;;;;;;8346300;28;20213;-67
2022/03/14 06:04:26;;;;;;;25.87;12.40;;;0.50;1.00;;;;;;8343720;28;20239;-67
2022/03/14 06:08:27;;;;;;;23.27;12.00;;;0.80;99.90;;;;;;8351657;28;20232;-67
2022/03/14 06:12:30;;;;;;;24.00;10.73;;;0.90;99.90;;;;;;8334947;28;20209;-66
2022/03/14 06:16:32;;;;;;;21.27;11.03;;;1.20;99.90;;;;;;8325009;28;20210;-67
2022/03/14 06:20:32;;;;;;;21.23;10.40;;;1.50;99.90;;;;;;8328536;28;20211;-67
2022/03/14 06:24:33;;;;;;;18.90;10.77;;;1.70;99.90;;;;;;8333746;28;20203;-66
2022/03/14 06:28:34;;;;;;;21.97;11.53;;;1.80;99.90;;;;;;8332548;28;20239;-66
2022/03/14 06:32:36;;;;;;;20.40;10.87;;;2.00;99.90;;;;;;8333203;28;20253;-67
2022/03/14 06:36:37;;;;;;;19.87;10.30;;;2.20;99.90;;;;;;8332462;28;20219;-67
2022/03/14 06:40:41;;;;;;;20.53;10.47;;;2.40;99.90;;;;;;8333504;28;20210;-67
2022/03/14 06:44:42;;;;;;;18.30;10.10;;;2.70;99.90;;;;;;8352266;28;20212;-66
2022/03/14 06:48:44;;;;;;;18.37;10.23;;;3.00;99.90;;;;;;8349795;28;20223;-67
2022/03/14 06:52:45;;;;;;;19.30;9.87;;;3.20;99.80;;;;;;8331732;28;20210;-67
2022/03/14 06:56:47;;;;;;;21.03;10.43;;;3.50;67.30;;;;;;8332906;28;20208;-68
2022/03/14 07:00:48;;;;;;;17.70;9.23;;;3.70;45.20;;;;;;8349187;28;20218;-65
2022/03/14 07:04:49;;;;;;;18.90;10.23;;;3.90;21.60;;;;;;8332343;28;20232;-65
2022/03/14 07:08:49;;;;;;;18.53;9.20;;;4.20;6.40;;;;;;8350611;28;20284;-67
2022/03/14 07:12:50;;;;;;;18.00;8.93;;;4.40;1.00;;;;;;8349472;28;20214;-66
2022/03/14 07:16:51;;;;;;;20.57;13.20;;;4.70;1.00;;;;;;8332278;28;20276;-66
2022/03/14 07:20:52;;;;;;;17.90;10.07;;;4.90;1.00;;;;;;8331342;28;20219;-66
2022/03/14 07:24:53;;;;;;;18.43;10.40;;;5.10;1.00;;;;;;8343540;28;20214;-67
2022/03/14 07:28:54;;;;;;;20.43;13.93;;;5.30;1.00;;;;;;8338909;28;20267;-67
2022/03/14 07:32:55;;;;;;;19.17;10.97;;;5.50;1.00;;;;;;8342506;28;20226;-66
2022/03/14 07:36:55;;;;;;;35.20;14.43;;;5.70;1.00;;;;;;8348094;28;20233;-66
2022/03/14 07:40:56;;;;;;;22.77;13.10;;;6.00;1.00;;;;;;8345618;28;20229;-65
2022/03/14 07:44:57;;;;;;;41.20;16.60;;;6.10;1.00;;;;;;8347014;28;20212;-67
2022/03/14 07:48:58;;;;;;;37.23;13.80;;;6.30;1.00;;;;;;8338968;28;20255;-67
2022/03/14 07:52:59;;;;;;;23.80;13.73;;;6.60;1.00;;;;;;8342370;28;20328;-67
2022/03/14 07:57:00;;;;;;;24.83;13.03;;;6.90;1.00;;;;;;8355760;28;20211;-66
2022/03/14 08:01:00;;;;;;;25.63;11.83;;;7.10;1.00;;;;;;8353695;28;20213;-66
2022/03/14 08:05:01;;;;;;;22.60;11.43;;;7.20;1.00;;;;;;8355304;28;20284;-67
2022/03/14 08:09:02;;;;;;;22.07;11.20;;;7.40;1.00;;;;;;8354876;28;20256;-67
2022/03/14 08:13:03;;;;;;;24.17;14.27;;;7.60;1.00;;;;;;8337015;28;20267;-66
2022/03/14 08:17:04;;;;;;;23.37;13.60;;;7.80;1.00;;;;;;8336155;28;20213;-67
2022/03/14 08:21:05;;;;;;;31.77;15.93;;;7.90;1.00;;;;;;8336992;28;20213;-68
2022/03/14 08:25:06;;;;;;;26.17;12.00;;;8.10;1.00;;;;;;8355392;28;20208;-66
2022/03/14 08:29:07;;;;;;;21.90;10.90;;;8.30;1.00;;;;;;8336179;28;20244;-66
2022/03/14 08:33:08;;;;;;;22.80;14.27;;;8.50;1.00;;;;;;8354418;28;20267;-67
2022/03/14 08:37:09;;;;;;;24.30;15.37;;;8.80;1.00;;;;;;8336685;28;20209;-67
2022/03/14 08:41:10;;;;;;;28.33;17.77;;;9.00;1.00;;;;;;8336170;28;20240;-67
2022/03/14 08:45:12;;;;;;;31.40;16.20;;;9.20;1.00;;;;;;8353344;28;20251;-66
2022/03/14 08:49:13;;;;;;;28.17;18.00;;;9.40;1.00;;;;;;8354042;28;20210;-66
2022/03/14 08:53:14;;;;;;;33.50;18.60;;;9.60;1.00;;;;;;8353335;28;20204;-67
2022/03/14 08:57:16;;;;;;;16.97;10.67;;;9.80;1.00;;;;;;8334054;28;20228;-67
2022/03/14 09:01:17;;;;;;;25.53;15.83;;;9.90;1.00;;;;;;8351673;28;20214;-65
2022/03/14 09:05:19;;;;;;;72.00;43.13;;;10.20;1.00;;;;;;8336590;28;20436;-66
2022/03/14 09:09:23;;;;;;;10.27;6.87;;;10.30;1.00;;;;;;8353220;28;20402;-67
2022/03/14 09:13:24;;;;;;;13.67;8.07;;;10.50;1.00;;;;;;8334830;28;20217;-66
2022/03/14 09:17:26;;;;;;;9.30;6.10;;;10.80;1.00;;;;;;8351971;28;20213;-67
2022/03/14 09:21:29;;;;;;;7.43;5.77;;;10.80;1.00;;;;;;8335263;28;20210;-65
2022/03/14 09:25:30;;;;;;;7.33;5.70;;;11.00;1.00;;;;;;8336053;28;20256;-66
2022/03/14 09:29:31;;;;;;;8.33;6.20;;;11.00;1.00;;;;;;8330726;28;20316;-67
2022/03/14 09:33:31;;;;;;;9.57;7.00;;;11.20;1.00;;;;;;8335231;28;20263;-66
2022/03/14 09:37:34;;;;;;;12.47;6.57;;;11.40;1.00;;;;;;8353753;28;20208;-67
2022/03/14 09:41:36;;;;;;;8.00;5.80;;;11.50;1.00;;;;;;8334665;28;20220;-67
2022/03/14 09:45:38;;;;;;;8.43;5.90;;;11.60;1.00;;;;;;8353125;28;20213;-67
2022/03/14 09:49:44;;;;;;;11.47;6.43;;;11.70;1.00;;;;;;8334688;28;20233;-67
2022/03/14 09:53:46;;;;;;;8.93;5.83;;;11.90;1.00;;;;;;8343851;28;20240;-67
2022/03/14 09:57:48;;;;;;;6.17;5.17;;;12.00;1.00;;;;;;8349091;28;20243;-67
2022/03/14 10:01:50;;;;;;;8.93;5.80;;;12.20;1.00;;;;;;8338129;28;20249;-65
2022/03/14 10:05:50;;;;;;;13.37;7.70;;;12.30;1.00;;;;;;8335611;28;20198;-67
2022/03/14 10:09:54;;;;;;;6.23;5.37;;;12.40;1.00;;;;;;8333084;28;20322;-66
2022/03/14 10:13:55;;;;;;;7.00;5.57;;;12.60;1.00;;;;;;8334310;28;20293;-68
2022/03/14 10:17:57;;;;;;;9.77;5.60;;;12.70;1.00;;;;;;8346902;28;20215;-66
2022/03/14 10:22:13;;;;;;;7.43;5.37;;;12.80;1.00;;;;;;8351628;28;20220;-65
2022/03/14 10:26:19;;;;;;;7.53;5.50;;;12.90;1.00;;;;;;8343402;28;20510;-66
2022/03/14 10:30:26;;;;;;;8.47;5.60;;;12.90;1.00;;;;;;8332303;28;20276;-66
2022/03/14 10:34:27;;;;;;;9.87;5.50;;;12.70;1.00;;;;;;8339170;28;20238;-66
2022/03/14 10:38:28;;;;;;;8.47;5.63;;;12.50;1.00;;;;;;8344368;28;20214;-67
2022/03/14 10:42:41;;;;;;;8.30;5.27;;;12.40;1.00;;;;;;8348264;28;20236;-67
2022/03/14 10:46:42;;;;;;;9.60;7.17;;;12.40;1.00;;;;;;8332140;28;20308;-65
2022/03/14 10:50:43;;;;;;;35.23;25.50;;;12.70;1.00;;;;;;8342913;28;20219;-67
2022/03/14 10:54:45;;;;;;;11.90;9.00;;;13.00;1.00;;;;;;8333250;28;20208;-67
2022/03/14 10:58:46;;;;;;;9.50;5.87;;;13.20;1.00;;;;;;8350445;28;20197;-67
2022/03/14 11:03:03;;;;;;;9.03;7.20;;;13.30;1.00;;;;;;8331493;28;20255;-67
2022/03/14 11:07:04;;;;;;;7.07;4.90;;;13.30;1.00;;;;;;8351759;28;20200;-67
2022/03/14 11:11:06;;;;;;;6.43;5.10;;;13.40;1.00;;;;;;8332113;28;20228;-67
2022/03/14 11:15:08;;;;;;;28.87;20.97;;;13.30;1.00;;;;;;8333926;28;20214;-67
2022/03/14 11:19:11;;;;;;;20.70;12.93;;;13.40;1.00;;;;;;8332261;28;20209;-67
2022/03/14 11:23:14;;;;;;;20.23;13.40;;;13.60;1.00;;;;;;8346324;28;20208;-67
2022/03/14 11:27:23;;;;;;;30.00;17.50;;;13.50;1.00;;;;;;8337669;28;20210;-65
2022/03/14 11:31:24;;;;;;;48.70;31.43;;;13.50;1.00;;;;;;8354555;28;20423;-66
2022/03/14 11:35:25;;;;;;;18.43;12.50;;;13.70;1.00;;;;;;8344943;28;20287;-67
2022/03/14 11:39:27;;;;;;;15.87;8.67;;;13.80;1.00;;;;;;8332278;28;20206;-66
2022/03/14 11:43:29;;;;;;;54.83;36.80;;;13.90;1.00;;;;;;8345893;28;20279;-66
2022/03/14 11:47:30;;;;;;;15.53;8.83;;;14.00;1.00;;;;;;8348144;28;20312;-65
2022/03/14 11:51:41;;;;;;;47.90;29.33;;;14.00;1.00;;;;;;8335078;28;20225;-66
2022/03/14 11:55:58;;;;;;;75.17;44.33;;;14.20;1.00;;;;;;8335699;28;20221;-67
2022/03/14 12:00:22;;;;;;;56.40;36.30;;;14.20;1.00;;;;;;8332619;28;20439;-66
2022/03/14 12:04:31;;;;;;;8.60;5.33;;;14.30;1.00;;;;;;8346701;28;20530;-66
2022/03/14 12:08:32;;;;;;;15.30;8.07;;;14.00;1.00;;;;;;8341818;28;20209;-65
2022/03/14 12:12:33;;;;;;;49.50;29.80;;;14.10;1.00;;;;;;8343233;28;20225;-66
2022/03/14 12:16:43;;;;;;;11.50;7.67;;;14.20;1.00;;;;;;8338281;28;20217;-66
2022/03/14 12:20:44;;;;;;;46.03;30.07;;;14.20;1.00;;;;;;8352243;28;20204;-67
2022/03/14 12:24:47;;;;;;;8.80;5.90;;;14.10;1.00;;;;;;8338072;28;20216;-66
2022/03/14 12:28:48;;;;;;;12.93;8.40;;;14.10;1.00;;;;;;8354035;28;20229;-66
2022/03/14 12:32:52;;;;;;;87.50;46.97;;;14.00;1.00;;;;;;8353588;28;20278;-67
2022/03/14 12:36:53;;;;;;;153.20;79.73;;;14.20;1.00;;;;;;8355359;28;20209;-67
2022/03/14 12:40:56;;;;;;;52.57;29.63;;;14.30;1.00;;;;;;8336194;28;20207;-68
2022/03/14 12:45:14;;;;;;;18.93;11.07;;;14.40;1.00;;;;;;8337019;28;20209;-67
2022/03/14 12:49:40;;;;;;;82.70;37.17;;;14.50;1.00;;;;;;8335339;28;20279;-67
2022/03/14 12:53:43;;;;;;;26.33;13.83;;;14.50;1.00;;;;;;8353557;28;20197;-67
2022/03/14 12:57:50;;;;;;;16.47;10.10;;;14.40;1.00;;;;;;8335464;28;20201;-67
2022/03/14 13:01:53;;;;;;;51.23;25.53;;;14.30;1.00;;;;;;8337399;28;20311;-67
2022/03/14 13:05:55;;;;;;;40.10;18.37;;;14.40;1.00;;;;;;8349508;28;20213;-67
2022/03/14 13:09:57;;;;;;;15.90;10.90;;;14.40;1.00;;;;;;8333049;28;20321;-65
2022/03/14 13:14:10;;;;;;;8.80;6.63;;;14.40;1.00;;;;;;8351418;28;20217;-67
2022/03/14 13:18:22;;;;;;;9.00;6.77;;;14.30;1.00;;;;;;8345594;28;20228;-67
2022/03/14 13:22:23;;;;;;;22.10;13.77;;;14.10;1.00;;;;;;8352331;28;20590;-67
2022/03/14 13:26:25;;;;;;;73.07;43.23;;;14.20;1.00;;;;;;8341987;28;20209;-67
2022/03/14 13:30:39;;;;;;;100.43;52.63;;;14.30;1.00;;;;;;8338434;28;20236;-67
2022/03/14 13:34:40;;;;;;;75.10;39.27;;;14.30;1.00;;;;;;8342580;28;20301;-67
2022/03/14 13:38:46;;;;;;;12.03;8.70;;;14.40;1.00;;;;;;8349631;28;20209;-67
2022/03/14 13:42:48;;;;;;;17.17;10.87;;;14.30;1.00;;;;;;8345857;28;20210;-67
2022/03/14 13:46:53;;;;;;;26.43;14.07;;;14.30;1.00;;;;;;8335123;28;20236;-67
2022/03/14 13:50:55;;;;;;;60.77;26.33;;;14.40;1.00;;;;;;8350953;28;20221;-67
2022/03/14 13:54:55;;;;;;;72.90;32.67;;;14.40;1.00;;;;;;8335379;28;20213;-66
2022/03/14 13:58:57;;;;;;;21.93;12.37;;;14.40;1.00;;;;;;8351215;28;20264;-67
2022/03/14 14:02:59;;;;;;;10.30;8.23;;;14.20;1.00;;;;;;8336409;28;20224;-67
2022/03/14 14:07:01;;;;;;;11.33;7.00;;;13.80;1.00;;;;;;8339426;28;20296;-67
2022/03/14 14:11:02;;;;;;;11.50;7.00;;;13.30;1.00;;;;;;8343122;28;20228;-67
2022/03/14 14:15:11;;;;;;;29.90;14.03;;;13.00;1.00;;;;;;8349961;28;20270;-67
2022/03/14 14:19:13;;;;;;;9.93;7.20;;;12.80;1.00;;;;;;8350427;28;20207;-67
2022/03/14 14:23:17;;;;;;;9.40;6.60;;;12.60;1.00;;;;;;8338078;28;20234;-67
2022/03/14 14:27:18;;;;;;;10.50;6.57;;;12.50;1.00;;;;;;8329251;28;20219;-67
2022/03/14 14:31:20;;;;;;;8.07;6.10;;;12.40;1.00;;;;;;8347437;28;20229;-67
2022/03/14 14:35:22;;;;;;;8.93;6.47;;;12.40;1.00;;;;;;8351205;28;20210;-67
2022/03/14 14:39:23;;;;;;;8.17;6.70;;;12.40;1.00;;;;;;8343943;28;20213;-67
2022/03/14 14:43:26;;;;;;;10.47;7.20;;;12.30;1.00;;;;;;8332074;28;20202;-67
2022/03/14 14:47:27;;;;;;;9.50;6.27;;;12.40;1.00;;;;;;8332551;28;20201;-67
2022/03/14 14:51:29;;;;;;;7.83;6.00;;;12.50;1.00;;;;;;8337292;28;20234;-67
2022/03/14 14:55:30;;;;;;;9.83;7.03;;;12.60;1.00;;;;;;8340226;28;20197;-67
2022/03/14 14:59:31;;;;;;;8.20;6.33;;;12.60;1.00;;;;;;8349154;28;20210;-67
2022/03/14 15:03:31;;;;;;;13.97;7.70;;;12.90;1.00;;;;;;8334428;28;20206;-66
2022/03/14 15:07:34;;;;;;;8.63;6.67;;;13.40;1.00;;;;;;8337350;28;20200;-67
2022/03/14 15:11:38;;;;;;;10.17;8.10;;;13.70;1.00;;;;;;8344778;28;20225;-67
2022/03/14 15:15:39;;;;;;;9.80;6.33;;;13.90;1.00;;;;;;8331402;28;20215;-67
2022/03/14 15:19:40;;;;;;;8.07;6.60;;;13.60;1.00;;;;;;8349659;28;20284;-67
2022/03/14 15:23:41;;;;;;;10.37;7.40;;;13.30;1.00;;;;;;8335256;28;20217;-68
2022/03/14 15:27:42;;;;;;;11.27;6.80;;;13.20;1.00;;;;;;8336829;28;20277;-67
2022/03/14 15:31:43;;;;;;;22.50;10.90;;;13.00;1.00;;;;;;8349679;28;20225;-68
2022/03/14 15:35:44;;;;;;;21.53;10.80;;;12.90;1.00;;;;;;8346556;28;20196;-68
2022/03/14 15:39:45;;;;;;;27.63;13.07;;;12.70;1.00;;;;;;8346854;28;20202;-68
2022/03/14 15:43:45;;;;;;;9.10;6.97;;;12.40;1.00;;;;;;8334137;28;20210;-68
2022/03/14 15:47:46;;;;;;;11.50;7.60;;;12.10;1.00;;;;;;8348270;28;20197;-68
2022/03/14 15:51:47;;;;;;;17.80;10.03;;;11.60;1.00;;;;;;8329650;28;20249;-68
2022/03/14 15:55:48;;;;;;;9.43;7.73;;;11.30;1.00;;;;;;8330707;28;20209;-68
2022/03/14 15:59:49;;;;;;;10.30;7.60;;;11.00;1.00;;;;;;8323819;28;20214;-69
2022/03/14 16:03:50;;;;;;;11.37;8.10;;;10.80;1.00;;;;;;8347731;28;20272;-68
2022/03/14 16:07:51;;;;;;;10.97;7.87;;;10.80;1.00;;;;;;8343447;28;20225;-68
2022/03/14 16:11:52;;;;;;;11.37;7.83;;;10.70;1.00;;;;;;8349545;28;20237;-69
2022/03/14 16:15:56;;;;;;;12.97;7.50;;;10.70;1.00;;;;;;8335216;28;20201;-68
2022/03/14 16:19:57;;;;;;;10.13;7.93;;;10.70;1.00;;;;;;8348419;28;20213;-68
2022/03/14 16:23:58;;;;;;;12.60;7.97;;;10.70;1.00;;;;;;8354751;28;20320;-68
2022/03/14 16:27:59;;;;;;;13.80;8.10;;;10.70;1.00;;;;;;8342004;28;20202;-67
2022/03/14 16:32:00;;;;;;;13.40;8.23;;;10.60;1.00;;;;;;8349166;28;20222;-67
2022/03/14 16:36:01;;;;;;;13.30;8.00;;;10.60;1.00;;;;;;8346663;28;20232;-68
2022/03/14 16:40:03;;;;;;;15.17;9.20;;;10.40;1.00;;;;;;8333390;28;20263;-67
2022/03/14 16:44:06;;;;;;;17.00;9.43;;;10.30;1.00;;;;;;8332001;28;20214;-67
2022/03/14 16:48:07;;;;;;;26.73;13.90;;;10.10;1.00;;;;;;8336335;28;20217;-67
2022/03/14 16:52:08;;;;;;;26.37;12.87;;;10.00;1.00;;;;;;8339070;28;20264;-67
2022/03/14 16:56:10;;;;;;;24.47;11.33;;;9.80;1.00;;;;;;8351126;28;20287;-67
2022/03/14 17:00:14;;;;;;;18.30;9.63;;;9.60;1.00;;;;;;8332968;28;20517;-67
2022/03/14 17:04:15;;;;;;;17.73;10.60;;;9.20;1.00;;;;;;8335970;28;20202;-67
2022/03/14 17:08:16;;;;;;;30.57;15.43;;;8.90;1.00;;;;;;8354731;28;20200;-67
2022/03/14 17:12:17;;;;;;;28.43;13.10;;;8.60;1.00;;;;;;8353764;28;20253;-68
2022/03/14 17:16:19;;;;;;;29.40;14.63;;;8.40;1.00;;;;;;8336024;28;20205;-67
2022/03/14 17:20:19;;;;;;;23.10;11.93;;;8.20;1.00;;;;;;8346376;28;20202;-68
2022/03/14 17:24:21;;;;;;;37.50;17.07;;;8.10;1.00;;;;;;8351381;28;20248;-68
2022/03/14 17:28:22;;;;;;;39.17;18.13;;;8.00;1.00;;;;;;8334760;28;20300;-67
2022/03/14 17:32:23;;;;;;;41.87;18.10;;;7.90;1.00;;;;;;8337129;28;20225;-67
2022/03/14 17:36:24;;;;;;;42.93;20.43;;;7.80;1.00;;;;;;8329279;28;20202;-67
2022/03/14 17:40:26;;;;;;;27.03;13.20;;;7.60;1.00;;;;;;8351287;28;20280;-67
2022/03/14 17:44:27;;;;;;;18.17;10.70;;;7.40;1.00;;;;;;8352302;28;20255;-67
2022/03/14 17:48:28;;;;;;;18.97;10.67;;;7.20;1.00;;;;;;8351428;28;20204;-67
2022/03/14 17:52:29;;;;;;;17.07;9.90;;;7.00;15.00;;;;;;8338336;28;20237;-67
2022/03/14 17:56:31;;;;;;;16.70;10.10;;;6.80;38.70;;;;;;8349464;28;20207;-67
2022/03/14 18:00:34;;;;;;;16.40;9.90;;;6.60;88.40;;;;;;8336112;28;20220;-67
2022/03/14 18:04:35;;;;;;;16.93;10.17;;;6.30;99.90;;;;;;8351358;28;20232;-67
2022/03/14 18:08:36;;;;;;;14.33;9.03;;;6.00;99.90;;;;;;8350572;28;20237;-67
2022/03/14 18:12:37;;;;;;;15.73;8.77;;;5.70;99.90;;;;;;8331463;28;20356;-67
2022/03/14 18:16:38;;;;;;;12.73;8.23;;;5.40;99.90;;;;;;8332543;28;20211;-67
2022/03/14 18:20:39;;;;;;;14.97;8.67;;;5.10;99.90;;;;;;8332746;28;20217;-67
2022/03/14 18:24:42;;;;;;;14.07;9.37;;;4.80;99.90;;;;;;8325673;28;20229;-66
2022/03/14 18:28:42;;;;;;;13.17;8.40;;;4.60;1.00;;;;;;8334727;28;20213;-67
2022/03/14 18:32:43;;;;;;;14.20;8.70;;;4.40;1.00;;;;;;8334992;28;20217;-67
2022/03/14 18:36:44;;;;;;;13.63;8.87;;;4.20;1.00;;;;;;8352445;28;20229;-67
2022/03/14 18:40:45;;;;;;;11.70;7.87;;;4.00;1.00;;;;;;8333339;28;20209;-66
2022/03/14 18:44:46;;;;;;;15.00;9.23;;;3.90;1.00;;;;;;8350462;28;20290;-66
2022/03/14 18:48:47;;;;;;;14.63;8.90;;;3.80;16.30;;;;;;8332474;28;20210;-66
2022/03/14 18:52:48;;;;;;;13.03;8.43;;;3.70;59.20;;;;;;8351235;28;20213;-66
2022/03/14 18:56:49;;;;;;;14.87;9.50;;;3.60;99.90;;;;;;8351283;28;20205;-66
2022/03/14 19:00:51;;;;;;;16.07;9.47;;;3.60;99.90;;;;;;8348906;28;20260;-67
2022/03/14 19:04:52;;;;;;;14.23;9.77;;;3.60;99.90;;;;;;8351239;28;20204;-67
2022/03/14 19:08:53;;;;;;;24.93;13.30;;;3.70;99.90;;;;;;8350966;28;20193;-67
2022/03/14 19:12:54;;;;;;;24.17;12.80;;;3.90;99.90;;;;;;8331611;28;20217;-67
2022/03/14 19:16:57;;;;;;;31.87;15.43;;;4.20;99.90;;;;;;8349775;28;20207;-67
2022/03/14 19:20:57;;;;;;;31.93;17.27;;;4.50;15.60;;;;;;8349419;28;20201;-67
2022/03/14 19:25:00;;;;;;;29.60;15.60;;;4.70;1.00;;;;;;8351222;28;20201;-67
2022/03/14 19:29:01;;;;;;;28.37;15.57;;;4.90;1.00;;;;;;8349772;28;20201;-67
2022/03/14 19:33:03;;;;;;;41.23;20.63;;;5.00;1.00;;;;;;8349756;28;20218;-67
2022/03/14 19:37:03;;;;;;;48.27;21.37;;;5.10;1.00;;;;;;8324247;28;20465;-66
2022/03/14 19:41:05;;;;;;;45.23;20.80;;;5.10;18.60;;;;;;8329981;28;20205;-67
2022/03/14 19:45:06;;;;;;;67.53;28.77;;;5.20;1.00;;;;;;8334945;28;20205;-67
2022/03/14 19:49:07;;;;;;;58.80;25.97;;;5.40;1.00;;;;;;8353693;28;20210;-66
2022/03/14 19:53:08;;;;;;;41.17;19.13;;;5.60;1.00;;;;;;8347909;28;20218;-67
2022/03/14 19:57:09;;;;;;;22.33;12.00;;;5.80;1.00;;;;;;8338287;28;20215;-67
2022/03/14 20:01:10;;;;;;;19.70;10.97;;;6.00;99.90;;;;;;8345845;28;20228;-67
2022/03/14 20:05:14;;;;;;;16.97;10.53;;;6.20;99.90;;;;;;8351303;28;20278;-67
2022/03/14 20:09:15;;;;;;;18.20;10.33;;;6.30;99.90;;;;;;8343330;28;20224;-66
2022/03/14 20:13:20;;;;;;;16.10;9.53;;;6.30;99.90;;;;;;8336533;28;20453;-67
2022/03/14 20:17:21;;;;;;;14.47;9.20;;;6.20;99.90;;;;;;8343156;28;20324;-66
2022/03/14 20:21:23;;;;;;;14.73;8.90;;;6.30;1.00;;;;;;8344476;28;20275;-68
2022/03/14 20:25:24;;;;;;;11.33;7.70;;;6.20;1.00;;;;;;8335294;28;20212;-68
2022/03/14 20:29:28;;;;;;;11.57;7.00;;;6.30;99.90;;;;;;8329787;28;20223;-68
2022/03/14 20:33:29;;;;;;;9.73;6.77;;;6.20;99.90;;;;;;8353535;28;20450;-68
2022/03/14 20:37:32;;;;;;;9.23;6.23;;;6.20;99.90;;;;;;8335727;28;20295;-68
2022/03/14 20:41:34;;;;;;;9.90;5.47;;;6.10;99.90;;;;;;8346283;28;20216;-68
2022/03/14 20:45:34;;;;;;;7.90;5.37;;;6.00;99.90;;;;;;8345425;28;20309;-68
2022/03/14 20:49:36;;;;;;;9.43;5.47;;;5.90;1.00;;;;;;8340100;28;20225;-68
2022/03/14 20:53:36;;;;;;;8.40;4.70;;;5.90;99.90;;;;;;8335043;28;20241;-68